CCA1692 ZULS-ZUUU
Flight info
| Callsign | CCA1692 |
|---|---|
| Flight time | 1h 57m |
| Altitude | 35100 |
| Route | DM01D DM W9 LADUP LADU8L |
| Aircraft | A20N/M-SDE2E3FGHIRWXY/LB1 |
Departure
| Time | 2026-04-24 09:11 |
|---|---|
| Airport | Lhasa Gonggar International Airport (ZULS) |
Arrival
| Time | 2026-04-24 11:08 |
|---|---|
| Airport | Chengdu Shuangliu International Airport (ZUUU) |
| Time | Latitude | Longitude | Altitude | Speed | Heading |
|---|---|---|---|---|---|
| 2026-04-24 08:52 | 29.29388 | 90.89501 | 11953 ft | 0 kts | 180° |
| 2026-04-24 09:00 | 29.29398 | 90.89501 | 11952 ft | 2 kts | 179° |
| 2026-04-24 09:00 | 29.29413 | 90.89500 | 11952 ft | 2 kts | 180° |
| 2026-04-24 09:01 | 29.29427 | 90.89500 | 11952 ft | 2 kts | 179° |
| 2026-04-24 09:01 | 29.29443 | 90.89500 | 11951 ft | 1 kts | 190° |
| 2026-04-24 09:01 | 29.29455 | 90.89509 | 11951 ft | 2 kts | 236° |
| 2026-04-24 09:01 | 29.29460 | 90.89520 | 11951 ft | 0 kts | 265° |
| 2026-04-24 09:02 | 29.29460 | 90.89529 | 11952 ft | 1 kts | 270° |
| 2026-04-24 09:02 | 29.29460 | 90.89530 | 11952 ft | 0 kts | 269° |
| 2026-04-24 09:06 | 29.29460 | 90.89529 | 11951 ft | 0 kts | 269° |
| 2026-04-24 09:06 | 29.29460 | 90.89523 | 11951 ft | 1 kts | 268° |
| 2026-04-24 09:06 | 29.29459 | 90.89507 | 11951 ft | 2 kts | 268° |
| 2026-04-24 09:07 | 29.29458 | 90.89482 | 11951 ft | 4 kts | 267° |
| 2026-04-24 09:07 | 29.29456 | 90.89439 | 11951 ft | 6 kts | 266° |
| 2026-04-24 09:07 | 29.29454 | 90.89333 | 11952 ft | 7 kts | 270° |
| 2026-04-24 09:08 | 29.29455 | 90.89277 | 11953 ft | 6 kts | 270° |
| 2026-04-24 09:08 | 29.29455 | 90.89226 | 11954 ft | 6 kts | 274° |
| 2026-04-24 09:08 | 29.29493 | 90.89198 | 11953 ft | 9 kts | 354° |
| 2026-04-24 09:08 | 29.29565 | 90.89197 | 11952 ft | 11 kts | 359° |
| 2026-04-24 09:09 | 29.29638 | 90.89195 | 11951 ft | 4 kts | 359° |
| 2026-04-24 09:09 | 29.29640 | 90.89195 | 11951 ft | 0 kts | 359° |
| 2026-04-24 09:09 | 29.29648 | 90.89195 | 11951 ft | 1 kts | 359° |
| 2026-04-24 09:09 | 29.29672 | 90.89195 | 11951 ft | 5 kts | 359° |
| 2026-04-24 09:10 | 29.29719 | 90.89195 | 11951 ft | 8 kts | 3° |
| 2026-04-24 09:10 | 29.29766 | 90.89226 | 11952 ft | 8 kts | 50° |
| 2026-04-24 09:10 | 29.29785 | 90.89426 | 11951 ft | 57 kts | 87° |
| 2026-04-24 09:10 | 29.29787 | 90.90139 | 11949 ft | 121 kts | 90° |
| 2026-04-24 09:11 | 29.29810 | 90.91325 | 11940 ft | 176 kts | 88° |
| 2026-04-24 09:11 | 29.29826 | 90.92894 | 12052 ft | 211 kts | 91° |
| 2026-04-24 09:11 | 29.29854 | 90.94571 | 12632 ft | 214 kts | 95° |
| 2026-04-24 09:11 | 29.29793 | 90.96283 | 13360 ft | 215 kts | 96° |
| 2026-04-24 09:12 | 29.29732 | 90.97982 | 14016 ft | 220 kts | 95° |
| 2026-04-24 09:12 | 29.29687 | 90.99755 | 14408 ft | 228 kts | 94° |
| 2026-04-24 09:12 | 29.29672 | 91.01615 | 14590 ft | 238 kts | 93° |
| 2026-04-24 09:12 | 29.29676 | 91.03546 | 14770 ft | 248 kts | 92° |
| 2026-04-24 09:13 | 29.29684 | 91.05573 | 14876 ft | 263 kts | 92° |
| 2026-04-24 09:13 | 29.29694 | 91.07709 | 15026 ft | 276 kts | 91° |
| 2026-04-24 09:13 | 29.29706 | 91.09946 | 15238 ft | 288 kts | 92° |
| 2026-04-24 09:13 | 29.29716 | 91.12292 | 15576 ft | 295 kts | 92° |
| 2026-04-24 09:14 | 29.29727 | 91.14638 | 16036 ft | 297 kts | 91° |
| 2026-04-24 09:14 | 29.29736 | 91.17005 | 16507 ft | 299 kts | 91° |
| 2026-04-24 09:14 | 29.29743 | 91.19386 | 16972 ft | 302 kts | 92° |
| 2026-04-24 09:14 | 29.29751 | 91.21794 | 17447 ft | 304 kts | 93° |
| 2026-04-24 09:15 | 29.29546 | 91.24184 | 17925 ft | 303 kts | 103° |
| 2026-04-24 09:15 | 29.28985 | 91.26495 | 18386 ft | 304 kts | 111° |
| 2026-04-24 09:15 | 29.28271 | 91.28761 | 18766 ft | 306 kts | 112° |
| 2026-04-24 09:15 | 29.27757 | 91.31173 | 18990 ft | 319 kts | 98° |
| 2026-04-24 09:16 | 29.27621 | 91.33752 | 19166 ft | 332 kts | 94° |
| 2026-04-24 09:16 | 29.27552 | 91.36427 | 19343 ft | 345 kts | 93° |
| 2026-04-24 09:16 | 29.27467 | 91.39211 | 19520 ft | 357 kts | 94° |
| 2026-04-24 09:16 | 29.27352 | 91.42108 | 19695 ft | 369 kts | 94° |
| 2026-04-24 09:17 | 29.27211 | 91.45076 | 19871 ft | 381 kts | 95° |
| 2026-04-24 09:17 | 29.27054 | 91.48178 | 20044 ft | 393 kts | 95° |
| 2026-04-24 09:17 | 29.26891 | 91.51330 | 20226 ft | 404 kts | 95° |
| 2026-04-24 09:17 | 29.26719 | 91.54547 | 20515 ft | 412 kts | 94° |
| 2026-04-24 09:18 | 29.26544 | 91.57823 | 20977 ft | 415 kts | 94° |
| 2026-04-24 09:18 | 29.26361 | 91.61133 | 21454 ft | 418 kts | 95° |
| 2026-04-24 09:18 | 29.26178 | 91.64465 | 21904 ft | 422 kts | 95° |
| 2026-04-24 09:18 | 29.25994 | 91.67798 | 22354 ft | 426 kts | 95° |
| 2026-04-24 09:19 | 29.25801 | 91.71204 | 22817 ft | 430 kts | 95° |
| 2026-04-24 09:19 | 29.25609 | 91.74632 | 23310 ft | 433 kts | 95° |
| 2026-04-24 09:19 | 29.25461 | 91.78084 | 23746 ft | 438 kts | 93° |
| 2026-04-24 09:19 | 29.25372 | 91.81555 | 24222 ft | 441 kts | 93° |
| 2026-04-24 09:20 | 29.25291 | 91.85081 | 24682 ft | 445 kts | 93° |
| 2026-04-24 09:20 | 29.25208 | 91.88619 | 25158 ft | 447 kts | 93° |
| 2026-04-24 09:20 | 29.25124 | 91.92160 | 25606 ft | 449 kts | 92° |
| 2026-04-24 09:20 | 29.25037 | 91.95734 | 26005 ft | 453 kts | 93° |
| 2026-04-24 09:21 | 29.24946 | 91.99357 | 26377 ft | 457 kts | 92° |
| 2026-04-24 09:21 | 29.24850 | 92.02987 | 26763 ft | 459 kts | 92° |
| 2026-04-24 09:21 | 29.24753 | 92.06667 | 27196 ft | 461 kts | 92° |
| 2026-04-24 09:21 | 29.24657 | 92.10306 | 27546 ft | 465 kts | 92° |
| 2026-04-24 09:22 | 29.24559 | 92.13992 | 27882 ft | 468 kts | 92° |
| 2026-04-24 09:22 | 29.24458 | 92.17760 | 28260 ft | 470 kts | 92° |
| 2026-04-24 09:22 | 29.24358 | 92.21460 | 28685 ft | 470 kts | 92° |
| 2026-04-24 09:22 | 29.24261 | 92.25208 | 29110 ft | 470 kts | 92° |
| 2026-04-24 09:23 | 29.24165 | 92.28912 | 29549 ft | 469 kts | 92° |
| 2026-04-24 09:23 | 29.24066 | 92.32630 | 30022 ft | 467 kts | 92° |
| 2026-04-24 09:23 | 29.23966 | 92.36352 | 30466 ft | 466 kts | 92° |
| 2026-04-24 09:23 | 29.23863 | 92.40032 | 30914 ft | 463 kts | 92° |
| 2026-04-24 09:24 | 29.23761 | 92.43667 | 31352 ft | 461 kts | 92° |
| 2026-04-24 09:24 | 29.23659 | 92.47328 | 31707 ft | 461 kts | 92° |
| 2026-04-24 09:24 | 29.23691 | 92.51004 | 31982 ft | 461 kts | 86° |
| 2026-04-24 09:24 | 29.24012 | 92.54622 | 32367 ft | 460 kts | 81° |
| 2026-04-24 09:25 | 29.24620 | 92.58189 | 32760 ft | 457 kts | 75° |
| 2026-04-24 09:25 | 29.25515 | 92.61687 | 33166 ft | 455 kts | 70° |
| 2026-04-24 09:25 | 29.26669 | 92.65030 | 33509 ft | 454 kts | 65° |
| 2026-04-24 09:25 | 29.28085 | 92.68256 | 33803 ft | 454 kts | 60° |
| 2026-04-24 09:26 | 29.29635 | 92.71394 | 34042 ft | 455 kts | 60° |
| 2026-04-24 09:26 | 29.31205 | 92.74509 | 34356 ft | 454 kts | 60° |
| 2026-04-24 09:26 | 29.32783 | 92.77649 | 34636 ft | 454 kts | 60° |
| 2026-04-24 09:26 | 29.34348 | 92.80788 | 34794 ft | 457 kts | 60° |
| 2026-04-24 09:27 | 29.35911 | 92.83933 | 34973 ft | 458 kts | 60° |
| 2026-04-24 09:27 | 29.37494 | 92.87128 | 35183 ft | 459 kts | 60° |
| 2026-04-24 09:27 | 29.39054 | 92.90287 | 35398 ft | 460 kts | 60° |
| 2026-04-24 09:27 | 29.40627 | 92.93476 | 35615 ft | 460 kts | 60° |
| 2026-04-24 09:28 | 29.42199 | 92.96669 | 35810 ft | 460 kts | 60° |
| 2026-04-24 09:28 | 29.43765 | 92.99845 | 35971 ft | 462 kts | 60° |
| 2026-04-24 09:28 | 29.46923 | 93.06252 | 35979 ft | 463 kts | 60° |
| 2026-04-24 09:29 | 29.50093 | 93.12704 | 35986 ft | 463 kts | 59° |
| 2026-04-24 09:29 | 29.53239 | 93.19122 | 35987 ft | 463 kts | 59° |
| 2026-04-24 09:30 | 29.56392 | 93.25568 | 35994 ft | 463 kts | 59° |
| 2026-04-24 09:30 | 29.59512 | 93.31959 | 35994 ft | 463 kts | 59° |
| 2026-04-24 09:31 | 29.62662 | 93.38420 | 35991 ft | 463 kts | 59° |
| 2026-04-24 09:31 | 29.65799 | 93.44864 | 35990 ft | 462 kts | 59° |
| 2026-04-24 09:32 | 29.68930 | 93.51309 | 35990 ft | 462 kts | 58° |
| 2026-04-24 09:32 | 29.72042 | 93.57725 | 35985 ft | 462 kts | 58° |
| 2026-04-24 09:33 | 29.75173 | 93.64185 | 35983 ft | 462 kts | 58° |
| 2026-04-24 09:33 | 29.78292 | 93.70641 | 35981 ft | 462 kts | 59° |
| 2026-04-24 09:34 | 29.81397 | 93.77080 | 35973 ft | 462 kts | 59° |
| 2026-04-24 09:34 | 29.84499 | 93.83524 | 35954 ft | 461 kts | 59° |
| 2026-04-24 09:35 | 29.87498 | 93.90024 | 35964 ft | 462 kts | 62° |
| 2026-04-24 09:35 | 29.89906 | 93.96880 | 35961 ft | 463 kts | 69° |
| 2026-04-24 09:36 | 29.91592 | 94.04007 | 35941 ft | 462 kts | 75° |
| 2026-04-24 09:36 | 29.93000 | 94.11224 | 35931 ft | 461 kts | 75° |
| 2026-04-24 09:37 | 29.94405 | 94.18442 | 35922 ft | 462 kts | 75° |
| 2026-04-24 09:37 | 29.95811 | 94.25615 | 35888 ft | 461 kts | 75° |
| 2026-04-24 09:38 | 29.97220 | 94.32806 | 35873 ft | 462 kts | 75° |
| 2026-04-24 09:38 | 29.98630 | 94.40012 | 35876 ft | 462 kts | 75° |
| 2026-04-24 09:39 | 30.00035 | 94.47210 | 35865 ft | 461 kts | 75° |
| 2026-04-24 09:39 | 30.01438 | 94.54433 | 35863 ft | 461 kts | 75° |
| 2026-04-24 09:40 | 30.02826 | 94.61595 | 35837 ft | 461 kts | 75° |
| 2026-04-24 09:40 | 30.04222 | 94.68823 | 35823 ft | 461 kts | 75° |
| 2026-04-24 09:41 | 30.05606 | 94.76009 | 35786 ft | 461 kts | 75° |
| 2026-04-24 09:41 | 30.06988 | 94.83218 | 35767 ft | 461 kts | 75° |
| 2026-04-24 09:42 | 30.08360 | 94.90412 | 35769 ft | 461 kts | 75° |
| 2026-04-24 09:42 | 30.09742 | 94.97651 | 35767 ft | 461 kts | 75° |
| 2026-04-24 09:43 | 30.11170 | 95.04832 | 35781 ft | 461 kts | 75° |
| 2026-04-24 09:43 | 30.12611 | 95.12025 | 35771 ft | 461 kts | 75° |
| 2026-04-24 09:44 | 30.14034 | 95.19190 | 35804 ft | 461 kts | 74° |
| 2026-04-24 09:44 | 30.15458 | 95.26395 | 35830 ft | 460 kts | 74° |
| 2026-04-24 09:45 | 30.16874 | 95.33581 | 35833 ft | 461 kts | 74° |
| 2026-04-24 09:45 | 30.18289 | 95.40791 | 35840 ft | 460 kts | 74° |
| 2026-04-24 09:46 | 30.19689 | 95.47943 | 35842 ft | 460 kts | 74° |
| 2026-04-24 09:46 | 30.21096 | 95.55154 | 35860 ft | 460 kts | 74° |
| 2026-04-24 09:47 | 30.22489 | 95.62319 | 35875 ft | 460 kts | 74° |
| 2026-04-24 09:47 | 30.23885 | 95.69514 | 35901 ft | 460 kts | 74° |
| 2026-04-24 09:48 | 30.25284 | 95.76746 | 35911 ft | 460 kts | 74° |
| 2026-04-24 09:48 | 30.26663 | 95.83920 | 35913 ft | 459 kts | 74° |
| 2026-04-24 09:49 | 30.28044 | 95.91120 | 35933 ft | 459 kts | 74° |
| 2026-04-24 09:49 | 30.29419 | 95.98312 | 35962 ft | 459 kts | 74° |
| 2026-04-24 09:50 | 30.30821 | 96.05471 | 35978 ft | 459 kts | 73° |
| 2026-04-24 09:50 | 30.32272 | 96.12628 | 35980 ft | 459 kts | 73° |
| 2026-04-24 09:51 | 30.33721 | 96.19833 | 35977 ft | 459 kts | 73° |
| 2026-04-24 09:51 | 30.35149 | 96.26990 | 35977 ft | 459 kts | 73° |
| 2026-04-24 09:52 | 30.36572 | 96.34152 | 35977 ft | 458 kts | 73° |
| 2026-04-24 09:52 | 30.37998 | 96.41337 | 35967 ft | 458 kts | 73° |
| 2026-04-24 09:53 | 30.39420 | 96.48525 | 35974 ft | 458 kts | 73° |
| 2026-04-24 09:53 | 30.40825 | 96.55666 | 35968 ft | 458 kts | 73° |
| 2026-04-24 09:54 | 30.42231 | 96.62826 | 35972 ft | 458 kts | 73° |
| 2026-04-24 09:54 | 30.43636 | 96.70006 | 35970 ft | 458 kts | 73° |
| 2026-04-24 09:55 | 30.45037 | 96.77188 | 35972 ft | 458 kts | 73° |
| 2026-04-24 09:55 | 30.46428 | 96.84344 | 35987 ft | 458 kts | 73° |
| 2026-04-24 09:56 | 30.47819 | 96.91522 | 35983 ft | 457 kts | 73° |
| 2026-04-24 09:56 | 30.49206 | 96.98710 | 35985 ft | 457 kts | 73° |
| 2026-04-24 09:57 | 30.50579 | 97.05907 | 35984 ft | 458 kts | 75° |
| 2026-04-24 09:57 | 30.51475 | 97.13191 | 35983 ft | 459 kts | 82° |
| 2026-04-24 09:58 | 30.51606 | 97.20551 | 35973 ft | 460 kts | 89° |
| 2026-04-24 09:58 | 30.51078 | 97.27940 | 35973 ft | 460 kts | 92° |
| 2026-04-24 09:59 | 30.50447 | 97.35272 | 35967 ft | 459 kts | 92° |
| 2026-04-24 09:59 | 30.49826 | 97.42617 | 35969 ft | 458 kts | 92° |
| 2026-04-24 10:00 | 30.49211 | 97.49920 | 35958 ft | 458 kts | 92° |
| 2026-04-24 10:00 | 30.48589 | 97.57294 | 35938 ft | 459 kts | 92° |
| 2026-04-24 10:01 | 30.47968 | 97.64619 | 35927 ft | 460 kts | 92° |
| 2026-04-24 10:01 | 30.47341 | 97.71967 | 35912 ft | 459 kts | 92° |
| 2026-04-24 10:02 | 30.46709 | 97.79329 | 35895 ft | 461 kts | 93° |
| 2026-04-24 10:02 | 30.46070 | 97.86720 | 35883 ft | 461 kts | 92° |
| 2026-04-24 10:03 | 30.45432 | 97.94057 | 35866 ft | 461 kts | 93° |
| 2026-04-24 10:03 | 30.44782 | 98.01419 | 35845 ft | 462 kts | 92° |
| 2026-04-24 10:04 | 30.44134 | 98.08787 | 35836 ft | 461 kts | 93° |
| 2026-04-24 10:04 | 30.43476 | 98.16167 | 35821 ft | 463 kts | 92° |
| 2026-04-24 10:05 | 30.42848 | 98.23589 | 35817 ft | 463 kts | 91° |
| 2026-04-24 10:05 | 30.42292 | 98.30957 | 35824 ft | 463 kts | 91° |
| 2026-04-24 10:06 | 30.41435 | 98.42085 | 35828 ft | 465 kts | 92° |
| 2026-04-24 10:07 | 30.40849 | 98.49534 | 35830 ft | 465 kts | 92° |
| 2026-04-24 10:07 | 30.40256 | 98.56982 | 35833 ft | 465 kts | 91° |
| 2026-04-24 10:08 | 30.39663 | 98.64401 | 35833 ft | 464 kts | 91° |
| 2026-04-24 10:08 | 30.39068 | 98.71796 | 35835 ft | 464 kts | 92° |
| 2026-04-24 10:09 | 30.38464 | 98.79271 | 35836 ft | 466 kts | 92° |
| 2026-04-24 10:09 | 30.37856 | 98.86686 | 35826 ft | 466 kts | 92° |
| 2026-04-24 10:10 | 30.37239 | 98.94180 | 35811 ft | 467 kts | 92° |
| 2026-04-24 10:10 | 30.36625 | 99.01595 | 35803 ft | 466 kts | 92° |
| 2026-04-24 10:11 | 30.36004 | 99.09044 | 35814 ft | 467 kts | 92° |
| 2026-04-24 10:11 | 30.35377 | 99.16521 | 35830 ft | 468 kts | 92° |
| 2026-04-24 10:12 | 30.34742 | 99.24031 | 35837 ft | 468 kts | 92° |
| 2026-04-24 10:12 | 30.34103 | 99.31491 | 35847 ft | 469 kts | 92° |
| 2026-04-24 10:13 | 30.33465 | 99.38966 | 35856 ft | 467 kts | 93° |
| 2026-04-24 10:13 | 30.32817 | 99.46458 | 35845 ft | 469 kts | 93° |
| 2026-04-24 10:14 | 30.32170 | 99.53901 | 35864 ft | 468 kts | 93° |
| 2026-04-24 10:14 | 30.31516 | 99.61392 | 35881 ft | 470 kts | 93° |
| 2026-04-24 10:15 | 30.30853 | 99.68903 | 35885 ft | 469 kts | 93° |
| 2026-04-24 10:15 | 30.30189 | 99.76363 | 35880 ft | 469 kts | 94° |
| 2026-04-24 10:16 | 30.29522 | 99.83833 | 35892 ft | 471 kts | 94° |
| 2026-04-24 10:16 | 30.28846 | 99.91305 | 35909 ft | 470 kts | 94° |
| 2026-04-24 10:17 | 30.28167 | 99.98817 | 35910 ft | 470 kts | 94° |
| 2026-04-24 10:17 | 30.27568 | 100.06310 | 35909 ft | 470 kts | 92° |
| 2026-04-24 10:18 | 30.27031 | 100.13840 | 35902 ft | 472 kts | 92° |
| 2026-04-24 10:18 | 30.26470 | 100.21403 | 35889 ft | 473 kts | 92° |
| 2026-04-24 10:19 | 30.25903 | 100.28970 | 35883 ft | 474 kts | 92° |
| 2026-04-24 10:19 | 30.25325 | 100.36524 | 35867 ft | 476 kts | 91° |
| 2026-04-24 10:20 | 30.24745 | 100.44138 | 35867 ft | 477 kts | 92° |
| 2026-04-24 10:20 | 30.24151 | 100.51798 | 35855 ft | 479 kts | 91° |
| 2026-04-24 10:21 | 30.23557 | 100.59419 | 35828 ft | 480 kts | 91° |
| 2026-04-24 10:21 | 30.22954 | 100.67087 | 35815 ft | 480 kts | 92° |
| 2026-04-24 10:22 | 30.22347 | 100.74764 | 35768 ft | 482 kts | 91° |
| 2026-04-24 10:22 | 30.21734 | 100.82497 | 35384 ft | 485 kts | 91° |
| 2026-04-24 10:22 | 30.21427 | 100.86313 | 35097 ft | 482 kts | 91° |
| 2026-04-24 10:23 | 30.21110 | 100.90205 | 34801 ft | 481 kts | 91° |
| 2026-04-24 10:23 | 30.20801 | 100.94036 | 34513 ft | 480 kts | 91° |
| 2026-04-24 10:23 | 30.20492 | 100.97852 | 34226 ft | 481 kts | 91° |
| 2026-04-24 10:23 | 30.20178 | 101.01680 | 33938 ft | 480 kts | 91° |
| 2026-04-24 10:24 | 30.19869 | 101.05487 | 33656 ft | 482 kts | 91° |
| 2026-04-24 10:24 | 30.19553 | 101.09321 | 33390 ft | 482 kts | 91° |
| 2026-04-24 10:24 | 30.19238 | 101.13177 | 33122 ft | 482 kts | 91° |
| 2026-04-24 10:24 | 30.18918 | 101.17026 | 32857 ft | 484 kts | 91° |
| 2026-04-24 10:25 | 30.18597 | 101.20895 | 32594 ft | 485 kts | 91° |
| 2026-04-24 10:25 | 30.18272 | 101.24764 | 32333 ft | 485 kts | 91° |
| 2026-04-24 10:25 | 30.17949 | 101.28617 | 32068 ft | 484 kts | 91° |
| 2026-04-24 10:25 | 30.17623 | 101.32491 | 31804 ft | 485 kts | 91° |
| 2026-04-24 10:26 | 30.17300 | 101.36341 | 31543 ft | 486 kts | 91° |
| 2026-04-24 10:26 | 30.16976 | 101.40208 | 31282 ft | 487 kts | 91° |
| 2026-04-24 10:26 | 30.16640 | 101.44124 | 31022 ft | 487 kts | 91° |
| 2026-04-24 10:26 | 30.16309 | 101.47985 | 30757 ft | 488 kts | 91° |
| 2026-04-24 10:27 | 30.15975 | 101.51914 | 30494 ft | 489 kts | 91° |
| 2026-04-24 10:27 | 30.15647 | 101.55763 | 30237 ft | 489 kts | 91° |
| 2026-04-24 10:27 | 30.15318 | 101.59682 | 29985 ft | 490 kts | 91° |
| 2026-04-24 10:27 | 30.14988 | 101.63583 | 29726 ft | 491 kts | 91° |
| 2026-04-24 10:28 | 30.14653 | 101.67513 | 29457 ft | 492 kts | 91° |
| 2026-04-24 10:28 | 30.14567 | 101.71349 | 29206 ft | 486 kts | 82° |
| 2026-04-24 10:28 | 30.15071 | 101.75224 | 28953 ft | 477 kts | 70° |
| 2026-04-24 10:28 | 30.16129 | 101.78841 | 28697 ft | 471 kts | 62° |
| 2026-04-24 10:29 | 30.17412 | 101.82302 | 28447 ft | 469 kts | 60° |
| 2026-04-24 10:29 | 30.18731 | 101.85732 | 28199 ft | 468 kts | 60° |
| 2026-04-24 10:29 | 30.20048 | 101.89179 | 27949 ft | 469 kts | 60° |
| 2026-04-24 10:29 | 30.21341 | 101.92605 | 27703 ft | 469 kts | 60° |
| 2026-04-24 10:30 | 30.22632 | 101.96061 | 27439 ft | 469 kts | 61° |
| 2026-04-24 10:30 | 30.23921 | 101.99545 | 27196 ft | 469 kts | 61° |
| 2026-04-24 10:30 | 30.25195 | 102.03004 | 26945 ft | 469 kts | 61° |
| 2026-04-24 10:30 | 30.26472 | 102.06477 | 26685 ft | 470 kts | 61° |
| 2026-04-24 10:31 | 30.27727 | 102.09898 | 26436 ft | 469 kts | 62° |
| 2026-04-24 10:31 | 30.28995 | 102.13366 | 26186 ft | 465 kts | 61° |
| 2026-04-24 10:31 | 30.30249 | 102.16798 | 25928 ft | 464 kts | 62° |
| 2026-04-24 10:31 | 30.31496 | 102.20209 | 25681 ft | 462 kts | 62° |
| 2026-04-24 10:32 | 30.32741 | 102.23625 | 25423 ft | 460 kts | 62° |
| 2026-04-24 10:32 | 30.33974 | 102.27006 | 25179 ft | 457 kts | 62° |
| 2026-04-24 10:32 | 30.35206 | 102.30388 | 24921 ft | 456 kts | 62° |
| 2026-04-24 10:32 | 30.36438 | 102.33769 | 24671 ft | 454 kts | 62° |
| 2026-04-24 10:33 | 30.37656 | 102.37122 | 24419 ft | 451 kts | 62° |
| 2026-04-24 10:33 | 30.38860 | 102.40434 | 24162 ft | 449 kts | 62° |
| 2026-04-24 10:33 | 30.40071 | 102.43774 | 23908 ft | 448 kts | 62° |
| 2026-04-24 10:33 | 30.41266 | 102.47070 | 23659 ft | 446 kts | 62° |
| 2026-04-24 10:34 | 30.42464 | 102.50375 | 23417 ft | 445 kts | 62° |
| 2026-04-24 10:34 | 30.43650 | 102.53651 | 23163 ft | 442 kts | 62° |
| 2026-04-24 10:34 | 30.44827 | 102.56911 | 22912 ft | 440 kts | 62° |
| 2026-04-24 10:34 | 30.46001 | 102.60165 | 22654 ft | 439 kts | 62° |
| 2026-04-24 10:35 | 30.47177 | 102.63422 | 22396 ft | 437 kts | 62° |
| 2026-04-24 10:35 | 30.48350 | 102.66672 | 22138 ft | 435 kts | 63° |
| 2026-04-24 10:35 | 30.49502 | 102.69865 | 21886 ft | 433 kts | 63° |
| 2026-04-24 10:35 | 30.50665 | 102.73093 | 21616 ft | 431 kts | 63° |
| 2026-04-24 10:36 | 30.51814 | 102.76287 | 21357 ft | 429 kts | 63° |
| 2026-04-24 10:36 | 30.52954 | 102.79469 | 21115 ft | 427 kts | 63° |
| 2026-04-24 10:36 | 30.54080 | 102.82618 | 20880 ft | 425 kts | 63° |
| 2026-04-24 10:36 | 30.55206 | 102.85763 | 20646 ft | 423 kts | 63° |
| 2026-04-24 10:37 | 30.56327 | 102.88894 | 20413 ft | 422 kts | 63° |
| 2026-04-24 10:37 | 30.57426 | 102.91977 | 20189 ft | 419 kts | 63° |
| 2026-04-24 10:37 | 30.58510 | 102.95022 | 19976 ft | 417 kts | 63° |
| 2026-04-24 10:37 | 30.59618 | 102.98127 | 19753 ft | 416 kts | 63° |
| 2026-04-24 10:38 | 30.60707 | 103.01185 | 19531 ft | 414 kts | 63° |
| 2026-04-24 10:38 | 30.61770 | 103.04216 | 19276 ft | 411 kts | 64° |
| 2026-04-24 10:38 | 30.62836 | 103.07316 | 19004 ft | 409 kts | 64° |
| 2026-04-24 10:38 | 30.63862 | 103.10311 | 18735 ft | 407 kts | 64° |
| 2026-04-24 10:39 | 30.64892 | 103.13320 | 18467 ft | 404 kts | 64° |
| 2026-04-24 10:39 | 30.65923 | 103.16332 | 18208 ft | 403 kts | 64° |
| 2026-04-24 10:39 | 30.66940 | 103.19298 | 17926 ft | 401 kts | 64° |
| 2026-04-24 10:39 | 30.67840 | 103.22342 | 17627 ft | 402 kts | 72° |
| 2026-04-24 10:40 | 30.68301 | 103.25514 | 17328 ft | 403 kts | 82° |
| 2026-04-24 10:40 | 30.68288 | 103.28767 | 17099 ft | 404 kts | 91° |
| 2026-04-24 10:40 | 30.68003 | 103.32029 | 16845 ft | 405 kts | 94° |
| 2026-04-24 10:40 | 30.67675 | 103.35255 | 16592 ft | 403 kts | 94° |
| 2026-04-24 10:41 | 30.67347 | 103.38476 | 16341 ft | 401 kts | 94° |
| 2026-04-24 10:41 | 30.67033 | 103.41677 | 16095 ft | 400 kts | 94° |
| 2026-04-24 10:41 | 30.66732 | 103.44840 | 15828 ft | 398 kts | 94° |
| 2026-04-24 10:41 | 30.66433 | 103.48011 | 15594 ft | 395 kts | 94° |
| 2026-04-24 10:42 | 30.66136 | 103.51206 | 15308 ft | 393 kts | 94° |
| 2026-04-24 10:42 | 30.65849 | 103.54310 | 15124 ft | 391 kts | 94° |
| 2026-04-24 10:42 | 30.65556 | 103.57452 | 14925 ft | 389 kts | 94° |
| 2026-04-24 10:42 | 30.65265 | 103.60549 | 14682 ft | 388 kts | 94° |
| 2026-04-24 10:43 | 30.64961 | 103.63637 | 14449 ft | 387 kts | 97° |
| 2026-04-24 10:43 | 30.64092 | 103.66591 | 14172 ft | 388 kts | 121° |
| 2026-04-24 10:43 | 30.62325 | 103.68888 | 13943 ft | 387 kts | 143° |
| 2026-04-24 10:43 | 30.59913 | 103.70286 | 13714 ft | 384 kts | 164° |
| 2026-04-24 10:44 | 30.57369 | 103.71024 | 13495 ft | 375 kts | 167° |
| 2026-04-24 10:44 | 30.54863 | 103.71706 | 13232 ft | 365 kts | 167° |
| 2026-04-24 10:44 | 30.52400 | 103.72301 | 13003 ft | 354 kts | 171° |
| 2026-04-24 10:44 | 30.49986 | 103.72637 | 12773 ft | 345 kts | 176° |
| 2026-04-24 10:45 | 30.47615 | 103.72805 | 12521 ft | 336 kts | 178° |
| 2026-04-24 10:45 | 30.45312 | 103.72944 | 12300 ft | 328 kts | 178° |
| 2026-04-24 10:45 | 30.43079 | 103.73084 | 12044 ft | 320 kts | 177° |
| 2026-04-24 10:45 | 30.40863 | 103.73231 | 11814 ft | 313 kts | 177° |
| 2026-04-24 10:46 | 30.38717 | 103.73257 | 11580 ft | 306 kts | 188° |
| 2026-04-24 10:46 | 30.36701 | 103.72597 | 11345 ft | 298 kts | 201° |
| 2026-04-24 10:46 | 30.34794 | 103.71709 | 11098 ft | 292 kts | 203° |
| 2026-04-24 10:46 | 30.32942 | 103.70821 | 10867 ft | 286 kts | 202° |
| 2026-04-24 10:47 | 30.31107 | 103.69957 | 10619 ft | 280 kts | 202° |
| 2026-04-24 10:47 | 30.29314 | 103.69121 | 10388 ft | 275 kts | 202° |
| 2026-04-24 10:47 | 30.27559 | 103.68298 | 10151 ft | 270 kts | 202° |
| 2026-04-24 10:47 | 30.25833 | 103.67491 | 9952 ft | 263 kts | 202° |
| 2026-04-24 10:48 | 30.24145 | 103.66702 | 9821 ft | 253 kts | 201° |
| 2026-04-24 10:48 | 30.22558 | 103.65961 | 9700 ft | 244 kts | 201° |
| 2026-04-24 10:48 | 30.20987 | 103.65228 | 9562 ft | 235 kts | 201° |
| 2026-04-24 10:48 | 30.19496 | 103.64534 | 9452 ft | 231 kts | 201° |
| 2026-04-24 10:49 | 30.18014 | 103.63845 | 9349 ft | 231 kts | 201° |
| 2026-04-24 10:49 | 30.16617 | 103.62923 | 9223 ft | 232 kts | 224° |
| 2026-04-24 10:49 | 30.15730 | 103.61391 | 9109 ft | 232 kts | 253° |
| 2026-04-24 10:49 | 30.15566 | 103.59562 | 8979 ft | 232 kts | 281° |
| 2026-04-24 10:50 | 30.16154 | 103.57851 | 8861 ft | 232 kts | 308° |
| 2026-04-24 10:50 | 30.17361 | 103.56641 | 8729 ft | 230 kts | 336° |
| 2026-04-24 10:50 | 30.18907 | 103.56204 | 8610 ft | 228 kts | 4° |
| 2026-04-24 10:50 | 30.20446 | 103.56593 | 8504 ft | 226 kts | 22° |
| 2026-04-24 10:51 | 30.21895 | 103.57275 | 8398 ft | 225 kts | 24° |
| 2026-04-24 10:51 | 30.23353 | 103.57981 | 8278 ft | 225 kts | 24° |
| 2026-04-24 10:51 | 30.24790 | 103.58662 | 8136 ft | 224 kts | 23° |
| 2026-04-24 10:51 | 30.26252 | 103.59341 | 8000 ft | 223 kts | 23° |
| 2026-04-24 10:52 | 30.27574 | 103.60118 | 7960 ft | 208 kts | 40° |
| 2026-04-24 10:52 | 30.28449 | 103.61371 | 7840 ft | 193 kts | 65° |
| 2026-04-24 10:52 | 30.28787 | 103.62814 | 7702 ft | 181 kts | 87° |
| 2026-04-24 10:52 | 30.28649 | 103.64202 | 7567 ft | 169 kts | 108° |
| 2026-04-24 10:53 | 30.28130 | 103.65394 | 7447 ft | 169 kts | 127° |
| 2026-04-24 10:53 | 30.27245 | 103.66351 | 7356 ft | 177 kts | 147° |
| 2026-04-24 10:53 | 30.26107 | 103.66888 | 7261 ft | 179 kts | 167° |
| 2026-04-24 10:53 | 30.24852 | 103.66910 | 7133 ft | 181 kts | 189° |
| 2026-04-24 10:54 | 30.23645 | 103.66469 | 7033 ft | 182 kts | 199° |
| 2026-04-24 10:54 | 30.22465 | 103.65922 | 6916 ft | 182 kts | 200° |
| 2026-04-24 10:54 | 30.21302 | 103.65372 | 6793 ft | 182 kts | 200° |
| 2026-04-24 10:54 | 30.20115 | 103.64818 | 6678 ft | 182 kts | 200° |
| 2026-04-24 10:55 | 30.18933 | 103.64269 | 6568 ft | 182 kts | 200° |
| 2026-04-24 10:55 | 30.17759 | 103.63731 | 6456 ft | 182 kts | 200° |
| 2026-04-24 10:55 | 30.16539 | 103.63442 | 6324 ft | 179 kts | 174° |
| 2026-04-24 10:55 | 30.15381 | 103.63899 | 6211 ft | 176 kts | 145° |
| 2026-04-24 10:56 | 30.14546 | 103.64919 | 6087 ft | 173 kts | 118° |
| 2026-04-24 10:56 | 30.14202 | 103.66223 | 5966 ft | 171 kts | 93° |
| 2026-04-24 10:56 | 30.14391 | 103.67579 | 5837 ft | 171 kts | 69° |
| 2026-04-24 10:56 | 30.14896 | 103.68819 | 5730 ft | 172 kts | 69° |
| 2026-04-24 10:57 | 30.15150 | 103.70167 | 5600 ft | 171 kts | 91° |
| 2026-04-24 10:57 | 30.14900 | 103.71503 | 5507 ft | 171 kts | 107° |
| 2026-04-24 10:57 | 30.14763 | 103.72852 | 5431 ft | 170 kts | 84° |
| 2026-04-24 10:57 | 30.15129 | 103.74144 | 5341 ft | 171 kts | 61° |
| 2026-04-24 10:58 | 30.15882 | 103.75198 | 5278 ft | 172 kts | 48° |
| 2026-04-24 10:58 | 30.16713 | 103.76179 | 5191 ft | 165 kts | 39° |
| 2026-04-24 10:58 | 30.17754 | 103.76657 | 5107 ft | 165 kts | 14° |
| 2026-04-24 10:58 | 30.18884 | 103.76926 | 5019 ft | 164 kts | 15° |
| 2026-04-24 10:59 | 30.19994 | 103.77266 | 5021 ft | 164 kts | 19° |
| 2026-04-24 10:59 | 30.21074 | 103.77682 | 5019 ft | 163 kts | 21° |
| 2026-04-24 10:59 | 30.22152 | 103.78130 | 5016 ft | 164 kts | 22° |
| 2026-04-24 10:59 | 30.23219 | 103.78590 | 5014 ft | 164 kts | 22° |
| 2026-04-24 11:00 | 30.24295 | 103.79063 | 5016 ft | 164 kts | 23° |
| 2026-04-24 11:00 | 30.25354 | 103.79537 | 5019 ft | 165 kts | 23° |
| 2026-04-24 11:00 | 30.26434 | 103.80027 | 5015 ft | 165 kts | 24° |
| 2026-04-24 11:00 | 30.27497 | 103.80515 | 5011 ft | 165 kts | 24° |
| 2026-04-24 11:01 | 30.28558 | 103.81007 | 5006 ft | 164 kts | 25° |
| 2026-04-24 11:01 | 30.29620 | 103.81503 | 5008 ft | 164 kts | 24° |
| 2026-04-24 11:01 | 30.30672 | 103.81997 | 5010 ft | 164 kts | 24° |
| 2026-04-24 11:01 | 30.31743 | 103.82501 | 5011 ft | 164 kts | 24° |
| 2026-04-24 11:02 | 30.32797 | 103.82997 | 5008 ft | 164 kts | 25° |
| 2026-04-24 11:02 | 30.33851 | 103.83494 | 5010 ft | 164 kts | 24° |
| 2026-04-24 11:02 | 30.34914 | 103.83994 | 5006 ft | 164 kts | 24° |
| 2026-04-24 11:02 | 30.35978 | 103.84494 | 4999 ft | 164 kts | 24° |
| 2026-04-24 11:03 | 30.37035 | 103.84991 | 4996 ft | 164 kts | 24° |
| 2026-04-24 11:03 | 30.38094 | 103.85486 | 4995 ft | 164 kts | 24° |
| 2026-04-24 11:03 | 30.39154 | 103.85983 | 4988 ft | 164 kts | 24° |
| 2026-04-24 11:03 | 30.40227 | 103.86484 | 4832 ft | 165 kts | 24° |
| 2026-04-24 11:04 | 30.41275 | 103.86972 | 4631 ft | 162 kts | 24° |
| 2026-04-24 11:04 | 30.42291 | 103.87445 | 4402 ft | 151 kts | 24° |
| 2026-04-24 11:04 | 30.43260 | 103.87897 | 4214 ft | 150 kts | 24° |
| 2026-04-24 11:04 | 30.44235 | 103.88352 | 4029 ft | 151 kts | 24° |
| 2026-04-24 11:05 | 30.45208 | 103.88807 | 3846 ft | 151 kts | 24° |
| 2026-04-24 11:05 | 30.46183 | 103.89262 | 3659 ft | 150 kts | 24° |
| 2026-04-24 11:05 | 30.47165 | 103.89719 | 3469 ft | 150 kts | 24° |
| 2026-04-24 11:05 | 30.48121 | 103.90164 | 3280 ft | 149 kts | 24° |
| 2026-04-24 11:06 | 30.49092 | 103.90617 | 3085 ft | 148 kts | 24° |
| 2026-04-24 11:06 | 30.50047 | 103.91061 | 2896 ft | 147 kts | 24° |
| 2026-04-24 11:06 | 30.51006 | 103.91509 | 2706 ft | 148 kts | 23° |
| 2026-04-24 11:06 | 30.51960 | 103.91953 | 2520 ft | 148 kts | 24° |
| 2026-04-24 11:07 | 30.53883 | 103.92847 | 2151 ft | 149 kts | 25° |
| 2026-04-24 11:07 | 30.54850 | 103.93302 | 1939 ft | 149 kts | 22° |
| 2026-04-24 11:07 | 30.55811 | 103.93742 | 1810 ft | 148 kts | 24° |
| 2026-04-24 11:08 | 30.56755 | 103.94190 | 1646 ft | 146 kts | 25° |
| 2026-04-24 11:08 | 30.57631 | 103.94599 | 1637 ft | 114 kts | 20° |
| 2026-04-24 11:08 | 30.58140 | 103.94824 | 1637 ft | 44 kts | 30° |
| 2026-04-24 11:08 | 30.58369 | 103.94941 | 1637 ft | 32 kts | 30° |
| 2026-04-24 11:09 | 30.58502 | 103.95079 | 1637 ft | 24 kts | 52° |
| 2026-04-24 11:09 | 30.58568 | 103.95216 | 1637 ft | 15 kts | 121° |
| 2026-04-24 11:09 | 30.58533 | 103.95316 | 1637 ft | 14 kts | 112° |
| 2026-04-24 11:09 | 30.58490 | 103.95384 | 1637 ft | 13 kts | 181° |
| 2026-04-24 11:10 | 30.58408 | 103.95354 | 1637 ft | 13 kts | 202° |
| 2026-04-24 11:10 | 30.58336 | 103.95320 | 1637 ft | 13 kts | 202° |
| 2026-04-24 11:10 | 30.58259 | 103.95283 | 1637 ft | 14 kts | 202° |
| 2026-04-24 11:10 | 30.58185 | 103.95248 | 1637 ft | 14 kts | 202° |
| 2026-04-24 11:11 | 30.58114 | 103.95216 | 1637 ft | 14 kts | 199° |
| 2026-04-24 11:11 | 30.58037 | 103.95180 | 1637 ft | 14 kts | 201° |
| 2026-04-24 11:11 | 30.57968 | 103.95149 | 1637 ft | 14 kts | 202° |
| 2026-04-24 11:11 | 30.57902 | 103.95167 | 1637 ft | 14 kts | 119° |
| 2026-04-24 11:12 | 30.57875 | 103.95240 | 1637 ft | 14 kts | 112° |
| 2026-04-24 11:12 | 30.57851 | 103.95308 | 1637 ft | 14 kts | 112° |
| 2026-04-24 11:12 | 30.57824 | 103.95351 | 1637 ft | 5 kts | 112° |
| 2026-04-24 11:12 | 30.57814 | 103.95380 | 1637 ft | 6 kts | 112° |
| 2026-04-24 11:13 | 30.57809 | 103.95393 | 1637 ft | 0 kts | 112° |
| 2026-04-24 11:13 | 30.57807 | 103.95398 | 1637 ft | 1 kts | 112° |
| 2026-04-24 11:13 | 30.57805 | 103.95404 | 1637 ft | 0 kts | 112° |